Time;durP1;ratioP1;P1;durP2;ratioP2;P2;SDS_P1;SDS_P2;PMS_P1;PMS_P2;Temp;Humidity;BMP_temperature;BMP_pressure;BME280_temperature;BME280_humidity;BME280_pressure;Samples;Min_cycle;Max_cycle;Signal;HPM_P1;HPM_P2
2021/09/19 00:01:51;;;;;;;1.60;1.30;;;;;;;;;;4513717;28;23610;-63
2021/09/19 00:04:01;;;;;;;1.63;1.23;;;;;;;;;;4514034;28;20049;-63
2021/09/19 00:06:12;;;;;;;1.23;1.13;;;;;;;;;;4515768;28;20033;-63
2021/09/19 00:08:22;;;;;;;1.63;1.20;;;;;;;;;;4515035;28;20571;-63
2021/09/19 00:10:33;;;;;;;1.67;1.30;;;;;;;;;;4514363;28;32468;-63
2021/09/19 00:12:44;;;;;;;2.33;1.40;;;;;;;;;;4516579;28;20060;-64
2021/09/19 00:14:54;;;;;;;1.30;1.20;;;;;;;;;;4514101;28;20832;-63
2021/09/19 00:17:05;;;;;;;1.67;1.27;;;;;;;;;;4503665;28;20034;-63
2021/09/19 00:19:15;;;;;;;1.23;1.10;;;;;;;;;;4515404;28;20192;-63
2021/09/19 00:21:25;;;;;;;1.27;1.17;;;;;;;;;;4516131;28;20046;-63
2021/09/19 00:23:36;;;;;;;1.50;1.40;;;;;;;;;;4513416;28;38771;-64
2021/09/19 00:25:46;;;;;;;1.67;1.10;;;;;;;;;;4496048;28;20133;-63
2021/09/19 00:27:57;;;;;;;1.40;1.13;;;;;;;;;;4514113;28;29773;-64
2021/09/19 00:30:08;;;;;;;1.50;1.20;;;;;;;;;;4514158;28;20363;-63
2021/09/19 00:32:19;;;;;;;1.33;1.10;;;;;;;;;;4514438;28;20037;-63
2021/09/19 00:34:29;;;;;;;1.23;1.03;;;;;;;;;;4503023;28;29558;-65
2021/09/19 00:36:40;;;;;;;1.40;1.13;;;;;;;;;;4512930;28;20049;-64
2021/09/19 00:38:50;;;;;;;1.50;1.07;;;;;;;;;;4497504;28;20038;-63
2021/09/19 00:41:01;;;;;;;1.47;1.27;;;;;;;;;;4515177;28;20065;-64
2021/09/19 00:43:11;;;;;;;1.20;1.10;;;;;;;;;;4514444;28;20038;-63
2021/09/19 00:45:23;;;;;;;1.20;1.10;;;;;;;;;;4514236;28;20045;-63
2021/09/19 00:47:34;;;;;;;1.05;0.93;;;;;;;;;;4517654;28;20038;-64
2021/09/19 00:49:44;;;;;;;2.80;1.00;;;;;;;;;;4513647;28;20038;-63
2021/09/19 00:51:54;;;;;;;1.30;1.20;;;;;;;;;;4512776;28;25610;-64
2021/09/19 00:54:05;;;;;;;0.80;0.80;;;;;;;;;;4519637;28;20033;-63
2021/09/19 00:56:21;;;;;;;1.40;1.30;;;;;;;;;;4514952;28;20117;-63
2021/09/19 00:58:32;;;;;;;1.17;1.00;;;;;;;;;;4512493;28;20264;-64
2021/09/19 01:00:47;;;;;;;2.15;1.23;;;;;;;;;;4513715;28;20037;-63
2021/09/19 01:02:57;;;;;;;1.20;1.10;;;;;;;;;;4513559;28;20084;-63
2021/09/19 01:05:08;;;;;;;1.00;0.90;;;;;;;;;;4514181;28;20453;-63
2021/09/19 01:07:19;;;;;;;1.20;1.10;;;;;;;;;;4502729;28;20038;-64
2021/09/19 01:09:30;;;;;;;1.43;1.20;;;;;;;;;;4516843;28;20034;-63
2021/09/19 01:11:40;;;;;;;0.90;0.90;;;;;;;;;;4486628;28;20505;-63
2021/09/19 01:13:51;;;;;;;0.87;0.87;;;;;;;;;;4514321;28;20303;-63
2021/09/19 01:16:03;;;;;;;0.90;0.90;;;;;;;;;;4514328;28;20030;-64
2021/09/19 01:18:14;;;;;;;1.20;1.00;;;;;;;;;;4496722;28;20126;-63
2021/09/19 01:20:25;;;;;;;1.33;1.10;;;;;;;;;;4514086;28;20044;-63
2021/09/19 01:22:36;;;;;;;1.00;0.90;;;;;;;;;;4515338;28;20369;-63
2021/09/19 01:24:46;;;;;;;1.27;0.97;;;;;;;;;;4513899;28;20069;-63
2021/09/19 01:26:57;;;;;;;0.80;0.80;;;;;;;;;;4514619;28;26225;-63
2021/09/19 01:29:07;;;;;;;0.90;0.90;;;;;;;;;;4514627;28;20079;-63
2021/09/19 01:31:18;;;;;;;1.95;1.00;;;;;;;;;;4514585;28;20040;-63
2021/09/19 01:33:28;;;;;;;2.57;1.10;;;;;;;;;;4515743;28;20034;-63
2021/09/19 01:35:39;;;;;;;1.03;0.73;;;;;;;;;;4514581;28;20083;-63
2021/09/19 01:37:49;;;;;;;1.00;0.87;;;;;;;;;;4515239;28;20033;-63
2021/09/19 01:40:00;;;;;;;0.83;0.83;;;;;;;;;;4517041;28;22826;-63
2021/09/19 01:42:11;;;;;;;0.93;0.83;;;;;;;;;;4517154;28;20133;-63
2021/09/19 01:44:21;;;;;;;1.05;0.70;;;;;;;;;;4516096;28;20049;-63
2021/09/19 01:46:32;;;;;;;0.87;0.80;;;;;;;;;;4518020;28;20033;-63
2021/09/19 01:48:43;;;;;;;0.80;0.80;;;;;;;;;;4518047;28;20061;-63
2021/09/19 01:50:53;;;;;;;1.23;0.80;;;;;;;;;;4516171;28;33688;-63
2021/09/19 01:53:04;;;;;;;0.90;0.80;;;;;;;;;;4515356;28;20056;-63
2021/09/19 01:55:15;;;;;;;1.83;0.70;;;;;;;;;;4497975;28;20506;-64
2021/09/19 01:57:25;;;;;;;1.07;0.80;;;;;;;;;;4499875;28;20740;-63
2021/09/19 01:59:36;;;;;;;1.60;0.80;;;;;;;;;;4515705;28;20259;-63
2021/09/19 02:01:46;;;;;;;1.07;0.73;;;;;;;;;;4516174;28;20137;-63
2021/09/19 02:03:57;;;;;;;1.20;0.93;;;;;;;;;;4517049;28;20390;-63
2021/09/19 02:06:09;;;;;;;1.00;0.80;;;;;;;;;;4516689;28;20061;-63
2021/09/19 02:08:19;;;;;;;0.80;0.80;;;;;;;;;;4506809;28;20119;-63
2021/09/19 02:10:29;;;;;;;0.63;0.63;;;;;;;;;;4516088;28;20087;-62
2021/09/19 02:12:41;;;;;;;0.70;0.70;;;;;;;;;;4516345;28;21131;-63
2021/09/19 02:14:52;;;;;;;0.70;0.70;;;;;;;;;;4522038;28;20040;-63
2021/09/19 02:17:02;;;;;;;1.03;0.70;;;;;;;;;;4514694;28;36831;-63
2021/09/19 02:19:13;;;;;;;1.23;0.70;;;;;;;;;;4515728;28;20037;-63
2021/09/19 02:21:24;;;;;;;0.70;0.70;;;;;;;;;;4505319;28;24034;-63
2021/09/19 02:23:34;;;;;;;0.60;0.60;;;;;;;;;;4504518;28;20113;-63
2021/09/19 02:25:45;;;;;;;0.70;0.70;;;;;;;;;;4504164;28;20062;-63
2021/09/19 02:27:55;;;;;;;1.20;0.87;;;;;;;;;;4518185;28;20026;-63
2021/09/19 02:30:08;;;;;;;0.77;0.73;;;;;;;;;;4517155;28;26371;-63
2021/09/19 02:32:18;;;;;;;0.63;0.63;;;;;;;;;;4517077;28;20033;-64
2021/09/19 02:34:29;;;;;;;0.80;0.70;;;;;;;;;;4515739;28;28803;-63
2021/09/19 02:36:40;;;;;;;0.60;0.60;;;;;;;;;;4516578;28;20044;-62
2021/09/19 02:38:51;;;;;;;1.10;0.73;;;;;;;;;;4516176;28;20033;-62
2021/09/19 02:41:02;;;;;;;0.68;0.68;;;;;;;;;;4517368;28;20063;-62
2021/09/19 02:43:13;;;;;;;0.90;0.90;;;;;;;;;;4516098;28;20025;-62
2021/09/19 02:45:23;;;;;;;1.13;0.83;;;;;;;;;;4515681;28;20720;-62
2021/09/19 02:47:34;;;;;;;0.70;0.70;;;;;;;;;;4517947;28;20386;-62
2021/09/19 02:49:44;;;;;;;0.90;0.70;;;;;;;;;;4516322;28;20100;-63
2021/09/19 02:51:55;;;;;;;1.07;0.63;;;;;;;;;;4498422;28;31845;-63
2021/09/19 02:54:05;;;;;;;0.90;0.70;;;;;;;;;;4516281;28;20390;-63
2021/09/19 02:56:16;;;;;;;0.90;0.70;;;;;;;;;;4499172;28;20565;-62
2021/09/19 02:58:26;;;;;;;0.70;0.70;;;;;;;;;;4497575;28;20061;-62
2021/09/19 03:00:37;;;;;;;1.50;0.90;;;;;;;;;;4515064;28;20033;-62
2021/09/19 03:02:48;;;;;;;0.73;0.70;;;;;;;;;;4516753;28;20040;-62
2021/09/19 03:04:59;;;;;;;0.60;0.60;;;;;;;;;;4515299;28;20666;-62
2021/09/19 03:07:09;;;;;;;0.93;0.60;;;;;;;;;;4516235;28;20104;-62
2021/09/19 03:09:19;;;;;;;1.23;0.80;;;;;;;;;;4516521;28;20569;-63
2021/09/19 03:11:30;;;;;;;1.00;0.70;;;;;;;;;;4516944;28;20034;-62
2021/09/19 03:13:41;;;;;;;0.80;0.80;;;;;;;;;;4504467;28;20038;-62
2021/09/19 03:15:51;;;;;;;0.73;0.60;;;;;;;;;;4514774;28;20404;-62
2021/09/19 03:18:01;;;;;;;0.67;0.67;;;;;;;;;;4514955;28;20044;-62
2021/09/19 03:20:14;;;;;;;0.70;0.70;;;;;;;;;;4508085;28;20069;-63
2021/09/19 03:22:25;;;;;;;0.60;0.60;;;;;;;;;;4498321;28;20065;-62
2021/09/19 03:24:35;;;;;;;0.60;0.60;;;;;;;;;;4504255;28;20771;-62
2021/09/19 03:26:45;;;;;;;0.63;0.63;;;;;;;;;;4498055;28;20608;-62
2021/09/19 03:28:56;;;;;;;2.30;0.80;;;;;;;;;;4515681;28;23780;-62
2021/09/19 03:31:07;;;;;;;0.87;0.80;;;;;;;;;;4504936;28;20145;-62
2021/09/19 03:33:17;;;;;;;1.57;0.60;;;;;;;;;;4515137;28;20076;-62
2021/09/19 03:35:28;;;;;;;1.20;0.80;;;;;;;;;;4480069;28;20442;-62
2021/09/19 03:37:38;;;;;;;0.73;0.70;;;;;;;;;;4515008;28;20048;-62
2021/09/19 03:39:49;;;;;;;0.80;0.77;;;;;;;;;;4516291;28;20034;-62
2021/09/19 03:41:59;;;;;;;0.97;0.77;;;;;;;;;;4513647;28;33639;-62
2021/09/19 03:44:10;;;;;;;0.80;0.70;;;;;;;;;;4515426;28;20161;-62
2021/09/19 03:46:21;;;;;;;0.77;0.77;;;;;;;;;;4504720;28;20034;-62
2021/09/19 03:48:31;;;;;;;0.80;0.70;;;;;;;;;;4516178;28;20398;-62
2021/09/19 03:50:42;;;;;;;1.03;0.93;;;;;;;;;;4517100;28;20087;-62
2021/09/19 03:52:52;;;;;;;0.90;0.70;;;;;;;;;;4513359;28;20034;-62
2021/09/19 03:55:03;;;;;;;0.83;0.80;;;;;;;;;;4496827;28;30559;-62
2021/09/19 03:57:13;;;;;;;1.30;0.80;;;;;;;;;;4515517;28;20045;-62
2021/09/19 03:59:25;;;;;;;0.80;0.70;;;;;;;;;;4513861;28;32450;-62
2021/09/19 04:01:35;;;;;;;1.17;0.65;;;;;;;;;;4514473;28;20036;-62
2021/09/19 04:03:46;;;;;;;1.27;0.70;;;;;;;;;;4511286;28;20100;-62
2021/09/19 04:05:56;;;;;;;0.77;0.70;;;;;;;;;;4515520;28;20091;-62
2021/09/19 04:08:07;;;;;;;0.97;0.63;;;;;;;;;;4516528;28;20052;-62
2021/09/19 04:10:17;;;;;;;1.13;0.80;;;;;;;;;;4514705;28;20431;-62
2021/09/19 04:12:27;;;;;;;0.77;0.77;;;;;;;;;;4513532;28;42101;-62
2021/09/19 04:14:38;;;;;;;1.40;0.90;;;;;;;;;;4514243;28;20708;-62
2021/09/19 04:16:48;;;;;;;0.80;0.80;;;;;;;;;;4515139;28;20033;-62
2021/09/19 04:19:01;;;;;;;1.27;0.80;;;;;;;;;;4514699;28;20092;-62
2021/09/19 04:21:11;;;;;;;0.95;0.80;;;;;;;;;;4514937;28;20069;-62
2021/09/19 04:23:24;;;;;;;1.00;0.77;;;;;;;;;;4514771;28;20575;-62
2021/09/19 04:25:35;;;;;;;1.20;0.70;;;;;;;;;;4513339;28;20045;-62
2021/09/19 04:27:45;;;;;;;0.80;0.80;;;;;;;;;;4514824;28;20100;-62
2021/09/19 04:29:56;;;;;;;1.00;0.90;;;;;;;;;;4514172;28;20041;-62
2021/09/19 04:32:06;;;;;;;0.80;0.73;;;;;;;;;;4513750;28;20026;-62
2021/09/19 04:34:17;;;;;;;1.07;0.80;;;;;;;;;;4514127;28;20045;-62
2021/09/19 04:36:27;;;;;;;1.00;0.90;;;;;;;;;;4513540;28;20041;-62
2021/09/19 04:38:38;;;;;;;1.00;0.80;;;;;;;;;;4515661;28;20038;-62
2021/09/19 04:40:48;;;;;;;1.43;1.00;;;;;;;;;;4514111;28;41214;-62
2021/09/19 04:42:58;;;;;;;1.33;0.90;;;;;;;;;;4512039;28;33965;-62
2021/09/19 04:45:09;;;;;;;1.13;1.00;;;;;;;;;;4513036;28;22932;-62
2021/09/19 04:47:20;;;;;;;1.20;0.80;;;;;;;;;;4513898;28;20104;-62
2021/09/19 04:49:30;;;;;;;0.97;0.87;;;;;;;;;;4503099;28;20942;-62
2021/09/19 04:51:41;;;;;;;1.23;1.00;;;;;;;;;;4502553;28;20113;-62
2021/09/19 04:53:51;;;;;;;1.30;1.07;;;;;;;;;;4494483;28;20891;-62
2021/09/19 04:56:02;;;;;;;1.90;1.10;;;;;;;;;;4514236;28;20033;-62
2021/09/19 04:58:12;;;;;;;0.87;0.83;;;;;;;;;;4503004;28;20034;-62
2021/09/19 05:00:23;;;;;;;1.10;1.00;;;;;;;;;;4512277;28;24266;-62
2021/09/19 05:02:33;;;;;;;1.33;0.90;;;;;;;;;;4512710;28;36733;-62
2021/09/19 05:04:43;;;;;;;0.93;0.80;;;;;;;;;;4514573;28;20053;-62
2021/09/19 05:06:54;;;;;;;1.53;0.90;;;;;;;;;;4495911;28;20046;-62
2021/09/19 05:09:04;;;;;;;0.83;0.80;;;;;;;;;;4514716;28;20029;-62
2021/09/19 05:11:15;;;;;;;1.00;0.87;;;;;;;;;;4513966;28;20045;-62
2021/09/19 05:13:25;;;;;;;0.93;0.70;;;;;;;;;;4517306;28;20060;-62
2021/09/19 05:15:35;;;;;;;0.90;0.77;;;;;;;;;;4516404;28;25467;-62
2021/09/19 05:17:46;;;;;;;0.80;0.80;;;;;;;;;;4515820;28;22769;-62
2021/09/19 05:19:56;;;;;;;1.43;0.83;;;;;;;;;;4517447;28;30887;-62
2021/09/19 05:22:07;;;;;;;1.57;1.10;;;;;;;;;;4505831;28;20034;-62
2021/09/19 05:24:17;;;;;;;1.23;0.80;;;;;;;;;;4516698;28;20038;-62
2021/09/19 05:26:28;;;;;;;1.33;0.90;;;;;;;;;;4481393;28;20031;-62
2021/09/19 05:28:38;;;;;;;1.10;1.00;;;;;;;;;;4505005;28;23403;-62
2021/09/19 05:30:49;;;;;;;1.00;0.77;;;;;;;;;;4515169;28;20201;-62
2021/09/19 05:32:59;;;;;;;1.00;0.90;;;;;;;;;;4515838;28;20077;-62
2021/09/19 05:35:10;;;;;;;1.17;0.83;;;;;;;;;;4516133;28;20126;-61
2021/09/19 05:37:20;;;;;;;1.37;1.00;;;;;;;;;;4498742;28;20029;-62
2021/09/19 05:39:31;;;;;;;1.60;0.93;;;;;;;;;;4489683;28;20065;-62
2021/09/19 05:41:41;;;;;;;1.07;0.97;;;;;;;;;;4516667;28;25620;-62
2021/09/19 05:43:52;;;;;;;1.57;0.93;;;;;;;;;;4516236;28;20133;-62
2021/09/19 05:46:02;;;;;;;0.73;0.70;;;;;;;;;;4518738;28;20836;-62
2021/09/19 05:48:12;;;;;;;1.17;0.90;;;;;;;;;;4517301;28;20034;-62
2021/09/19 05:50:23;;;;;;;1.93;0.97;;;;;;;;;;4504904;28;25107;-62
2021/09/19 05:52:34;;;;;;;1.33;0.80;;;;;;;;;;4500302;28;20619;-62
2021/09/19 05:54:44;;;;;;;0.90;0.70;;;;;;;;;;4517268;28;20033;-62
2021/09/19 05:56:55;;;;;;;1.30;0.93;;;;;;;;;;4516220;28;28733;-63
2021/09/19 05:59:05;;;;;;;2.53;1.00;;;;;;;;;;4516872;28;20409;-62
2021/09/19 06:01:16;;;;;;;0.70;0.70;;;;;;;;;;4515524;28;20080;-61
2021/09/19 06:03:26;;;;;;;1.40;1.10;;;;;;;;;;4518272;28;20148;-62
2021/09/19 06:05:36;;;;;;;1.00;0.83;;;;;;;;;;4498764;28;20116;-62
2021/09/19 06:07:47;;;;;;;1.20;0.73;;;;;;;;;;4513766;28;23488;-62
2021/09/19 06:09:57;;;;;;;1.13;0.80;;;;;;;;;;4514702;28;20470;-62
2021/09/19 06:12:08;;;;;;;1.47;0.90;;;;;;;;;;4507810;28;20117;-61
2021/09/19 06:14:18;;;;;;;1.00;0.90;;;;;;;;;;4515828;28;20851;-61
2021/09/19 06:16:29;;;;;;;1.20;0.90;;;;;;;;;;4515101;28;32160;-63
2021/09/19 06:18:39;;;;;;;1.57;0.87;;;;;;;;;;4515231;28;20036;-62
2021/09/19 06:20:49;;;;;;;0.70;0.70;;;;;;;;;;4516514;28;20044;-63
2021/09/19 06:23:00;;;;;;;1.00;0.70;;;;;;;;;;4514824;28;37618;-62
2021/09/19 06:25:11;;;;;;;1.10;1.00;;;;;;;;;;4498185;28;20544;-62
2021/09/19 06:27:21;;;;;;;1.02;0.90;;;;;;;;;;4516771;28;20036;-61
2021/09/19 06:29:32;;;;;;;1.00;0.77;;;;;;;;;;4514983;28;20048;-62
2021/09/19 06:31:42;;;;;;;1.83;1.20;;;;;;;;;;4504635;28;20037;-61
2021/09/19 06:33:53;;;;;;;1.23;0.90;;;;;;;;;;4505154;28;20038;-62
2021/09/19 06:36:03;;;;;;;1.33;1.00;;;;;;;;;;4515860;28;20043;-61
2021/09/19 06:38:14;;;;;;;1.87;1.00;;;;;;;;;;4516913;28;20041;-62
2021/09/19 06:40:25;;;;;;;1.00;0.90;;;;;;;;;;4481515;28;20043;-62
2021/09/19 06:42:38;;;;;;;2.40;1.30;;;;;;;;;;4482504;28;20290;-62
2021/09/19 06:44:49;;;;;;;0.90;0.77;;;;;;;;;;4516708;28;20163;-61
2021/09/19 06:47:00;;;;;;;2.13;0.95;;;;;;;;;;4516125;28;20032;-62
2021/09/19 06:49:11;;;;;;;2.00;1.10;;;;;;;;;;4497056;28;29674;-62
2021/09/19 06:51:21;;;;;;;1.27;0.90;;;;;;;;;;4505866;28;20050;-62
2021/09/19 06:53:33;;;;;;;1.77;1.10;;;;;;;;;;4514911;28;20164;-61
2021/09/19 06:55:44;;;;;;;1.42;1.00;;;;;;;;;;4514503;28;20033;-61
2021/09/19 06:57:55;;;;;;;1.10;1.00;;;;;;;;;;4512399;28;23453;-62
2021/09/19 07:00:06;;;;;;;;;;;;;;;;;;4505570;28;20109;-61
2021/09/19 07:02:16;;;;;;;1.20;1.00;;;;;;;;;;4504398;28;20054;-62
2021/09/19 07:04:27;;;;;;;1.30;1.00;;;;;;;;;;4504505;28;20050;-63
2021/09/19 07:06:37;;;;;;;2.20;1.30;;;;;;;;;;4498203;28;20042;-61
2021/09/19 07:08:48;;;;;;;1.10;1.00;;;;;;;;;;4514796;28;20088;-62
2021/09/19 07:10:58;;;;;;;1.53;1.20;;;;;;;;;;4515124;28;20056;-62
2021/09/19 07:13:09;;;;;;;1.60;1.10;;;;;;;;;;4512825;28;20038;-62
2021/09/19 07:15:19;;;;;;;1.77;1.10;;;;;;;;;;4515519;28;20037;-61
2021/09/19 07:17:30;;;;;;;1.00;0.80;;;;;;;;;;4514203;28;20034;-62
2021/09/19 07:19:40;;;;;;;1.63;1.33;;;;;;;;;;4499243;28;20038;-62
2021/09/19 07:21:50;;;;;;;1.40;0.90;;;;;;;;;;4514597;28;20025;-62
2021/09/19 07:24:01;;;;;;;1.30;1.07;;;;;;;;;;4515364;28;20052;-62
2021/09/19 07:26:11;;;;;;;1.60;1.17;;;;;;;;;;4496590;28;20578;-61
2021/09/19 07:28:22;;;;;;;1.33;1.00;;;;;;;;;;4498457;28;20038;-62
2021/09/19 07:30:33;;;;;;;1.33;1.10;;;;;;;;;;4514242;28;20037;-62
2021/09/19 07:32:44;;;;;;;1.70;0.90;;;;;;;;;;4513230;28;20069;-62
2021/09/19 07:34:54;;;;;;;1.52;1.10;;;;;;;;;;4514689;28;20104;-62
2021/09/19 07:37:06;;;;;;;1.20;1.10;;;;;;;;;;4514089;28;20189;-62
2021/09/19 07:39:17;;;;;;;1.77;1.00;;;;;;;;;;4514193;28;20076;-62
2021/09/19 07:41:28;;;;;;;0.80;0.80;;;;;;;;;;4515911;28;20148;-62
2021/09/19 07:43:40;;;;;;;1.45;1.00;;;;;;;;;;4486304;28;20081;-62
2021/09/19 07:45:50;;;;;;;;;;;;;;;;;;4515506;28;20037;-62
2021/09/19 07:48:02;;;;;;;1.48;1.10;;;;;;;;;;4513349;28;19914;-62
2021/09/19 07:50:13;;;;;;;1.60;1.10;;;;;;;;;;4514522;28;20045;-62
2021/09/19 07:52:24;;;;;;;0.85;0.80;;;;;;;;;;4515379;28;20029;-62
2021/09/19 07:54:35;;;;;;;1.63;1.05;;;;;;;;;;4480025;28;20304;-62
2021/09/19 07:56:46;;;;;;;1.57;1.20;;;;;;;;;;4502684;28;20068;-62
2021/09/19 07:58:56;;;;;;;1.00;0.90;;;;;;;;;;4515695;28;20041;-62
2021/09/19 08:01:06;;;;;;;1.60;0.93;;;;;;;;;;4516506;28;20168;-63
2021/09/19 08:03:17;;;;;;;1.10;0.90;;;;;;;;;;4503721;28;20042;-62
2021/09/19 08:05:27;;;;;;;1.47;1.00;;;;;;;;;;4514403;28;20053;-62
2021/09/19 08:07:38;;;;;;;1.77;1.20;;;;;;;;;;4514324;28;34938;-63
2021/09/19 08:09:49;;;;;;;1.80;1.13;;;;;;;;;;4514004;28;20472;-62
2021/09/19 08:11:59;;;;;;;1.97;1.30;;;;;;;;;;4516010;28;20227;-62
2021/09/19 08:14:09;;;;;;;1.37;1.10;;;;;;;;;;4505433;28;20085;-63
2021/09/19 08:16:20;;;;;;;1.33;1.00;;;;;;;;;;4503272;28;20030;-63
2021/09/19 08:18:30;;;;;;;1.47;1.13;;;;;;;;;;4513734;28;22656;-62
2021/09/19 08:20:41;;;;;;;1.43;1.00;;;;;;;;;;4515570;28;20033;-62
2021/09/19 08:22:51;;;;;;;1.13;1.03;;;;;;;;;;4515884;28;20033;-62
2021/09/19 08:25:06;;;;;;;1.23;1.00;;;;;;;;;;4513101;28;20077;-61
2021/09/19 08:27:16;;;;;;;2.08;1.10;;;;;;;;;;4503178;28;20032;-62
2021/09/19 08:29:27;;;;;;;1.27;1.03;;;;;;;;;;4515474;28;20785;-62
2021/09/19 08:31:38;;;;;;;1.87;1.00;;;;;;;;;;4515930;28;20068;-62
2021/09/19 08:33:49;;;;;;;1.48;1.08;;;;;;;;;;4514767;28;20734;-61
2021/09/19 08:36:00;;;;;;;1.57;1.17;;;;;;;;;;4514939;28;20153;-62
2021/09/19 08:38:10;;;;;;;0.90;0.90;;;;;;;;;;4512353;28;20069;-60
2021/09/19 08:40:20;;;;;;;1.20;1.00;;;;;;;;;;4495811;28;20042;-61
2021/09/19 08:42:32;;;;;;;1.30;1.03;;;;;;;;;;4513251;28;27156;-61
2021/09/19 08:44:42;;;;;;;2.05;1.02;;;;;;;;;;4514505;28;20041;-64
2021/09/19 08:46:53;;;;;;;1.87;1.30;;;;;;;;;;4502502;28;20495;-62
2021/09/19 08:49:03;;;;;;;1.97;1.13;;;;;;;;;;4514725;28;20405;-62
2021/09/19 08:51:14;;;;;;;1.20;1.10;;;;;;;;;;4503255;28;20040;-62
2021/09/19 08:53:27;;;;;;;1.17;1.07;;;;;;;;;;4515463;28;20041;-62
2021/09/19 08:55:37;;;;;;;2.10;1.48;;;;;;;;;;4503409;28;20261;-63
2021/09/19 08:57:49;;;;;;;1.70;1.27;;;;;;;;;;4513363;28;25460;-63
2021/09/19 09:00:12;;;;;;;1.60;1.30;;;;;;;;;;4496559;28;20136;-64
2021/09/19 09:02:22;;;;;;;1.42;1.20;;;;;;;;;;4512879;28;20040;-63
2021/09/19 09:04:36;;;;;;;1.30;1.20;;;;;;;;;;4515924;28;20096;-63
2021/09/19 09:06:46;;;;;;;1.38;1.23;;;;;;;;;;4514863;28;21265;-63
2021/09/19 09:08:57;;;;;;;2.10;1.43;;;;;;;;;;4514969;28;30668;-63
2021/09/19 09:11:09;;;;;;;2.13;1.37;;;;;;;;;;4514516;28;20038;-63
2021/09/19 09:13:22;;;;;;;1.60;1.33;;;;;;;;;;4512421;28;20037;-63
2021/09/19 09:15:42;;;;;;;1.70;1.40;;;;;;;;;;4513487;28;20021;-63
2021/09/19 09:17:52;;;;;;;2.22;1.50;;;;;;;;;;4495482;28;20030;-63
2021/09/19 09:20:03;;;;;;;1.57;1.47;;;;;;;;;;4513861;28;21967;-63
2021/09/19 09:22:15;;;;;;;2.08;1.50;;;;;;;;;;4518735;28;20572;-63
2021/09/19 09:24:25;;;;;;;2.03;1.45;;;;;;;;;;4502700;28;20164;-63
2021/09/19 09:26:37;;;;;;;2.33;1.33;;;;;;;;;;4511485;28;20128;-64
2021/09/19 09:29:07;;;;;;;1.30;1.20;;;;;;;;;;4513075;28;20041;-63
2021/09/19 09:31:34;;;;;;;1.80;1.60;;;;;;;;;;4514264;28;20609;-63
2021/09/19 09:34:01;;;;;;;2.47;1.52;;;;;;;;;;4495907;28;20087;-63
2021/09/19 09:36:11;;;;;;;1.83;1.55;;;;;;;;;;4494549;28;20065;-63
2021/09/19 09:38:23;;;;;;;2.30;1.53;;;;;;;;;;4514089;28;29174;-63
2021/09/19 09:40:34;;;;;;;1.58;1.45;;;;;;;;;;4514261;28;20553;-63
2021/09/19 09:43:20;;;;;;;1.63;1.27;;;;;;;;;;4513915;28;21533;-63
2021/09/19 09:45:31;;;;;;;1.60;1.40;;;;;;;;;;4460271;28;20050;-63
2021/09/19 09:47:42;;;;;;;2.05;1.50;;;;;;;;;;4480876;28;20529;-63
2021/09/19 09:49:57;;;;;;;2.67;1.30;;;;;;;;;;4512320;28;20042;-64
2021/09/19 09:52:11;;;;;;;1.42;1.33;;;;;;;;;;4512864;28;20029;-63
2021/09/19 09:54:21;;;;;;;1.50;1.40;;;;;;;;;;4502963;28;20786;-63
2021/09/19 09:56:32;;;;;;;2.10;1.30;;;;;;;;;;4514408;28;20084;-63
2021/09/19 09:58:43;;;;;;;2.10;1.10;;;;;;;;;;4512928;28;20091;-63
2021/09/19 10:00:54;;;;;;;1.27;1.17;;;;;;;;;;4515296;28;20140;-64
2021/09/19 10:03:05;;;;;;;2.53;1.60;;;;;;;;;;4516028;28;20561;-63
2021/09/19 10:05:17;;;;;;;1.55;1.30;;;;;;;;;;4498004;28;20039;-63
2021/09/19 10:07:27;;;;;;;1.48;1.38;;;;;;;;;;4520907;28;20038;-63
2021/09/19 10:09:42;;;;;;;2.33;1.77;;;;;;;;;;4498655;28;23923;-64
2021/09/19 10:11:54;;;;;;;1.40;1.30;;;;;;;;;;4515494;28;20030;-63
2021/09/19 10:14:05;;;;;;;2.05;1.40;;;;;;;;;;4506372;28;20022;-64
2021/09/19 10:16:16;;;;;;;1.70;1.60;;;;;;;;;;4498482;28;20073;-64
2021/09/19 10:18:27;;;;;;;2.25;1.65;;;;;;;;;;4515435;28;20030;-64
2021/09/19 10:20:44;;;;;;;1.53;1.43;;;;;;;;;;4514496;28;20037;-63
2021/09/19 10:23:29;;;;;;;1.77;1.67;;;;;;;;;;4516154;28;20619;-63
2021/09/19 10:25:48;;;;;;;1.70;1.33;;;;;;;;;;4505518;28;20885;-63
2021/09/19 10:28:27;;;;;;;1.73;1.50;;;;;;;;;;4517366;28;20042;-64
2021/09/19 10:30:37;;;;;;;1.52;1.42;;;;;;;;;;4516471;28;20228;-63
2021/09/19 10:32:48;;;;;;;2.83;1.77;;;;;;;;;;4505195;28;20096;-64
2021/09/19 10:34:58;;;;;;;1.37;1.27;;;;;;;;;;4489247;28;20058;-63
2021/09/19 10:37:09;;;;;;;1.83;1.57;;;;;;;;;;4515703;28;20418;-63
2021/09/19 10:39:22;;;;;;;1.97;1.43;;;;;;;;;;4515654;28;36042;-64
2021/09/19 10:41:33;;;;;;;1.83;1.40;;;;;;;;;;4516693;28;20046;-64
2021/09/19 10:43:54;;;;;;;1.47;1.30;;;;;;;;;;4516303;28;29372;-63
2021/09/19 10:46:05;;;;;;;;;;;;;;;;;;4517120;28;20045;-64
2021/09/19 10:48:27;;;;;;;2.07;1.60;;;;;;;;;;4516806;28;19917;-63
2021/09/19 10:50:37;;;;;;;1.63;1.48;;;;;;;;;;4514428;28;20087;-64
2021/09/19 10:52:52;;;;;;;1.67;1.50;;;;;;;;;;4515258;28;20095;-63
2021/09/19 10:55:17;;;;;;;2.00;1.50;;;;;;;;;;4520466;28;20033;-63
2021/09/19 10:57:33;;;;;;;1.60;1.45;;;;;;;;;;4516471;28;20735;-63
2021/09/19 11:00:06;;;;;;;2.15;1.55;;;;;;;;;;4516206;28;20579;-63
2021/09/19 11:02:29;;;;;;;1.58;1.40;;;;;;;;;;4515287;28;20617;-63
2021/09/19 11:04:39;;;;;;;1.40;1.30;;;;;;;;;;4504006;28;20042;-63
2021/09/19 11:06:50;;;;;;;1.50;1.40;;;;;;;;;;4515481;28;27540;-63
2021/09/19 11:09:23;;;;;;;1.40;1.30;;;;;;;;;;4497867;28;20633;-64
2021/09/19 11:11:34;;;;;;;1.48;1.38;;;;;;;;;;4515718;28;20037;-63
2021/09/19 11:13:48;;;;;;;1.70;1.60;;;;;;;;;;4515858;28;20490;-63
2021/09/19 11:16:01;;;;;;;1.40;1.30;;;;;;;;;;4514200;28;20064;-63
2021/09/19 11:18:24;;;;;;;2.20;1.40;;;;;;;;;;4515284;28;21037;-63
2021/09/19 11:20:34;;;;;;;2.13;1.20;;;;;;;;;;4517996;28;20176;-63
2021/09/19 11:22:50;;;;;;;1.40;1.20;;;;;;;;;;4497722;28;33878;-64
2021/09/19 11:25:02;;;;;;;2.03;1.30;;;;;;;;;;4514740;28;20500;-63
2021/09/19 11:27:12;;;;;;;1.90;1.20;;;;;;;;;;4515502;28;20073;-63
2021/09/19 11:29:24;;;;;;;1.73;1.20;;;;;;;;;;4504244;28;20073;-63
2021/09/19 11:31:36;;;;;;;1.40;1.30;;;;;;;;;;4515092;28;20046;-63
2021/09/19 11:33:46;;;;;;;1.25;1.10;;;;;;;;;;4503826;28;20050;-63
2021/09/19 11:36:08;;;;;;;1.50;1.30;;;;;;;;;;4514933;28;20041;-63
2021/09/19 11:38:19;;;;;;;1.45;1.20;;;;;;;;;;4497388;28;20285;-64
2021/09/19 11:40:29;;;;;;;1.55;1.10;;;;;;;;;;4513815;28;20193;-64
2021/09/19 11:42:40;;;;;;;1.33;1.03;;;;;;;;;;4515197;28;20034;-63
2021/09/19 11:44:50;;;;;;;1.97;1.40;;;;;;;;;;4515421;28;20045;-63
2021/09/19 11:47:03;;;;;;;1.43;1.20;;;;;;;;;;4515246;28;20037;-64
2021/09/19 11:49:15;;;;;;;1.20;1.10;;;;;;;;;;4513255;28;20030;-64
2021/09/19 11:51:26;;;;;;;3.22;1.10;;;;;;;;;;4514062;28;20029;-64
2021/09/19 11:53:36;;;;;;;1.23;1.10;;;;;;;;;;4514106;28;20030;-63
2021/09/19 11:55:47;;;;;;;1.27;1.00;;;;;;;;;;4515556;28;20037;-64
2021/09/19 11:57:59;;;;;;;1.27;1.13;;;;;;;;;;4512963;28;20433;-64
2021/09/19 12:00:11;;;;;;;1.65;1.08;;;;;;;;;;4497114;28;20593;-63
2021/09/19 12:02:29;;;;;;;1.73;1.17;;;;;;;;;;4515089;28;20040;-64
2021/09/19 12:04:48;;;;;;;1.42;1.10;;;;;;;;;;4515539;28;20044;-64
2021/09/19 12:06:58;;;;;;;1.67;1.00;;;;;;;;;;4515412;28;20623;-63
2021/09/19 12:09:16;;;;;;;1.10;1.00;;;;;;;;;;4504462;28;20034;-64
2021/09/19 12:11:45;;;;;;;1.50;1.10;;;;;;;;;;4515417;28;21404;-64
2021/09/19 12:13:57;;;;;;;2.03;1.10;;;;;;;;;;4515450;28;20048;-63
2021/09/19 12:16:13;;;;;;;1.80;1.23;;;;;;;;;;4514842;28;20041;-64
2021/09/19 12:18:26;;;;;;;1.10;0.98;;;;;;;;;;4503723;28;20889;-64
2021/09/19 12:20:36;;;;;;;1.20;1.00;;;;;;;;;;4504694;28;20719;-63
2021/09/19 12:22:46;;;;;;;2.13;0.93;;;;;;;;;;4495186;28;33330;-63
2021/09/19 12:25:00;;;;;;;0.80;0.80;;;;;;;;;;4515162;28;21661;-64
2021/09/19 12:27:12;;;;;;;2.03;1.20;;;;;;;;;;4515707;28;20080;-64
2021/09/19 12:29:22;;;;;;;1.52;1.00;;;;;;;;;;4515005;28;20038;-64
2021/09/19 12:31:32;;;;;;;1.13;1.00;;;;;;;;;;4503051;28;20033;-63
2021/09/19 12:33:51;;;;;;;1.47;1.10;;;;;;;;;;4513700;28;20034;-63
2021/09/19 12:36:07;;;;;;;1.33;1.08;;;;;;;;;;4514162;28;20552;-63
2021/09/19 12:38:18;;;;;;;1.58;1.10;;;;;;;;;;4514217;28;20042;-63
2021/09/19 12:40:30;;;;;;;1.77;1.13;;;;;;;;;;4515009;28;20034;-63
2021/09/19 12:42:40;;;;;;;1.27;0.95;;;;;;;;;;4502074;28;20616;-63
2021/09/19 12:44:51;;;;;;;1.20;1.10;;;;;;;;;;4512874;28;20042;-63
2021/09/19 12:47:06;;;;;;;1.43;1.07;;;;;;;;;;4513805;28;20034;-63
2021/09/19 12:49:25;;;;;;;1.30;1.08;;;;;;;;;;4515532;28;20557;-63
2021/09/19 12:51:38;;;;;;;1.63;1.00;;;;;;;;;;4514644;28;20120;-63
2021/09/19 12:53:49;;;;;;;1.48;1.00;;;;;;;;;;4502569;28;20129;-63
2021/09/19 12:56:00;;;;;;;1.30;1.00;;;;;;;;;;4512792;28;35195;-63
2021/09/19 12:58:10;;;;;;;1.85;1.20;;;;;;;;;;4502393;28;20086;-63
2021/09/19 13:00:23;;;;;;;1.57;1.00;;;;;;;;;;4514269;28;20044;-63
2021/09/19 13:02:34;;;;;;;1.52;1.05;;;;;;;;;;4513946;28;21290;-63
2021/09/19 13:04:44;;;;;;;1.75;1.02;;;;;;;;;;4514737;28;20560;-63
2021/09/19 13:06:55;;;;;;;1.90;1.30;;;;;;;;;;4480440;28;20477;-63
2021/09/19 13:09:06;;;;;;;1.10;1.00;;;;;;;;;;4513455;28;27603;-63
2021/09/19 13:11:16;;;;;;;1.65;1.00;;;;;;;;;;4512164;28;20041;-63